createdAt,value
2022-10-11T00:01:35.931Z,18.60
2022-10-11T00:06:39.112Z,19.10
2022-10-11T00:11:43.351Z,15.00
2022-10-11T00:16:46.254Z,21.10
2022-10-11T00:21:49.153Z,21.00
2022-10-11T00:26:52.085Z,27.60
2022-10-11T00:31:55.095Z,19.10
2022-10-11T00:36:58.042Z,20.70
2022-10-11T00:42:01.075Z,21.80
2022-10-11T00:47:10.608Z,17.10
2022-10-11T00:52:40.657Z,21.20
2022-10-11T00:57:48.664Z,18.60
2022-10-11T01:02:51.802Z,25.70
2022-10-11T01:07:54.793Z,30.60
2022-10-11T01:13:39.212Z,27.40
2022-10-11T01:18:50.242Z,24.60
2022-10-11T01:24:28.381Z,30.00
2022-10-11T01:30:17.969Z,32.30
2022-10-11T01:35:38.337Z,48.00
2022-10-11T01:40:53.257Z,40.10
2022-10-11T01:45:59.234Z,32.10
2022-10-11T01:51:04.091Z,49.60
2022-10-11T01:56:47.577Z,23.10
2022-10-11T02:02:41.835Z,18.90
2022-10-11T02:07:56.964Z,22.90
2022-10-11T02:13:22.709Z,24.20
2022-10-11T02:18:33.333Z,21.70
2022-10-11T02:23:44.206Z,32.70
2022-10-11T02:28:50.476Z,73.30
2022-10-11T02:34:28.412Z,53.40
2022-10-11T02:39:56.064Z,26.90
2022-10-11T02:45:08.111Z,52.30
2022-10-11T02:50:13.612Z,27.90
2022-10-11T02:55:16.654Z,71.90
2022-10-11T03:00:19.774Z,25.30
2022-10-11T03:05:22.794Z,268.10
2022-10-11T03:10:25.745Z,88.70
2022-10-11T03:15:29.856Z,42.10
2022-10-11T03:20:32.797Z,21.10
2022-10-11T03:25:35.746Z,50.20
2022-10-11T03:30:38.680Z,34.30
2022-10-11T03:35:45.034Z,15.40
2022-10-11T03:40:51.276Z,11.50
2022-10-11T03:45:57.056Z,20.70
2022-10-11T03:51:00.882Z,18.50
2022-10-11T03:56:08.261Z,13.30
2022-10-11T04:01:11.668Z,18.40
2022-10-11T04:06:14.634Z,30.40
2022-10-11T04:11:17.628Z,18.50
2022-10-11T04:16:20.549Z,15.10
2022-10-11T04:21:23.462Z,13.20
2022-10-11T04:26:26.829Z,12.90
2022-10-11T04:31:29.727Z,12.40
2022-10-11T04:36:34.132Z,11.70
2022-10-11T04:41:37.073Z,11.60
2022-10-11T04:46:40.086Z,12.90
2022-10-11T04:51:43.443Z,12.70
2022-10-11T04:56:46.329Z,13.90
2022-10-11T05:01:49.316Z,12.80
2022-10-11T05:06:52.436Z,12.40
2022-10-11T05:11:55.340Z,16.60
2022-10-11T05:16:58.268Z,43.00
2022-10-11T05:22:01.161Z,17.40
2022-10-11T05:27:04.145Z,16.70
2022-10-11T05:32:07.083Z,20.10
2022-10-11T05:37:10.038Z,13.60
2022-10-11T05:42:13.494Z,26.80
2022-10-11T05:47:16.363Z,19.30
2022-10-11T05:52:21.674Z,18.00
2022-10-11T05:57:24.636Z,27.70
2022-10-11T06:02:27.605Z,18.70
2022-10-11T06:07:30.828Z,17.80
2022-10-11T06:12:33.900Z,17.30
2022-10-11T06:17:37.332Z,14.70
2022-10-11T06:22:40.557Z,17.40
2022-10-11T06:27:43.504Z,15.20
2022-10-11T06:32:46.415Z,14.40
2022-10-11T06:37:49.325Z,14.30
2022-10-11T06:42:52.476Z,16.40
2022-10-11T06:47:55.495Z,14.50
2022-10-11T06:52:59.467Z,17.70
2022-10-11T06:58:02.409Z,16.40
2022-10-11T07:03:05.448Z,16.20
2022-10-11T07:08:08.367Z,16.90
2022-10-11T07:13:16.262Z,16.70
2022-10-11T07:18:20.241Z,16.60
2022-10-11T07:23:24.388Z,17.20
2022-10-11T07:28:28.989Z,16.10
2022-10-11T07:33:32.701Z,15.60
2022-10-11T07:38:38.598Z,15.30
2022-10-11T07:43:43.672Z,15.70
2022-10-11T07:48:50.229Z,16.00
2022-10-11T07:53:56.226Z,15.30
2022-10-11T07:59:05.555Z,16.00
2022-10-11T08:04:08.530Z,13.00
2022-10-11T08:09:12.325Z,14.50
2022-10-11T08:14:15.230Z,12.40
2022-10-11T08:19:18.957Z,13.50
2022-10-11T08:24:21.890Z,12.40
2022-10-11T08:29:25.140Z,11.40
2022-10-11T08:34:28.107Z,14.50
2022-10-11T08:39:31.426Z,14.40
2022-10-11T08:45:22.949Z,13.60
2022-10-11T08:50:23.625Z,14.30
2022-10-11T08:55:48.537Z,11.10
2022-10-11T09:00:56.748Z,11.50
2022-10-11T09:06:05.687Z,13.30
2022-10-11T09:11:45.326Z,13.10
2022-10-11T09:16:57.307Z,13.60
2022-10-11T09:22:30.777Z,16.00
2022-10-11T09:28:04.108Z,15.70
2022-10-11T09:33:32.472Z,15.60
2022-10-11T09:38:52.333Z,15.60
2022-10-11T09:43:55.364Z,16.60
2022-10-11T09:49:00.249Z,17.70
2022-10-11T09:54:06.597Z,17.20
2022-10-11T09:59:35.295Z,16.40
2022-10-11T10:04:57.446Z,18.30
2022-10-11T10:10:26.017Z,21.20
2022-10-11T10:15:32.511Z,18.70
2022-10-11T10:20:36.803Z,19.60
2022-10-11T10:25:43.480Z,19.00
2022-10-11T10:30:57.072Z,18.00
2022-10-11T10:36:39.443Z,14.70
2022-10-11T10:41:42.487Z,12.60
2022-10-11T10:47:16.827Z,13.60
2022-10-11T10:52:56.693Z,13.70
2022-10-11T10:58:23.298Z,12.20
2022-10-11T11:03:55.998Z,11.50
2022-10-11T11:09:28.109Z,12.90
2022-10-11T11:14:31.001Z,12.80
2022-10-11T11:20:14.337Z,11.10
2022-10-11T11:25:31.095Z,10.90
2022-10-11T11:31:09.012Z,10.60
2022-10-11T11:36:28.051Z,11.40
2022-10-11T11:41:44.548Z,8.60
2022-10-11T11:47:20.822Z,10.30
2022-10-11T11:52:33.967Z,12.60
2022-10-11T11:58:07.163Z,10.00
2022-10-11T12:03:17.305Z,10.20
2022-10-11T12:08:32.064Z,13.10
2022-10-11T12:13:40.952Z,17.40
2022-10-11T12:18:59.184Z,17.40
2022-10-11T12:24:12.070Z,17.70
2022-10-11T12:29:25.933Z,9.50
2022-10-11T12:34:35.306Z,7.50
2022-10-11T12:39:55.263Z,9.20
2022-10-11T12:45:13.375Z,8.30
2022-10-11T12:50:31.172Z,7.70
2022-10-11T12:56:24.154Z,7.90
2022-10-11T13:01:35.100Z,6.60
2022-10-11T13:06:54.927Z,6.30
2022-10-11T13:12:18.391Z,6.00
2022-10-11T13:17:32.311Z,4.10
2022-10-11T13:22:40.575Z,5.10
2022-10-11T13:27:44.130Z,5.20
2022-10-11T13:37:50.471Z,4.90
2022-10-11T13:42:55.421Z,4.70
2022-10-11T13:47:58.480Z,5.00
2022-10-11T13:53:23.911Z,5.10
2022-10-11T13:58:47.778Z,4.40
2022-10-11T14:04:01.921Z,5.10
2022-10-11T14:09:05.198Z,4.10
2022-10-11T14:14:40.678Z,3.30
2022-10-11T14:19:46.833Z,4.60
2022-10-11T14:24:49.811Z,4.20
2022-10-11T14:30:19.951Z,3.50
2022-10-11T14:35:18.281Z,3.70
2022-10-11T14:40:29.614Z,3.40
2022-10-11T14:45:32.578Z,4.20
2022-10-11T14:50:47.866Z,4.20
2022-10-11T14:55:51.245Z,4.10
2022-10-11T15:00:54.134Z,4.10
2022-10-11T15:05:57.278Z,3.90
2022-10-11T15:11:00.248Z,3.80
2022-10-11T15:16:03.591Z,4.90
2022-10-11T15:21:07.568Z,4.90
2022-10-11T15:26:18.684Z,4.30
2022-10-11T15:31:22.131Z,5.20
2022-10-11T15:36:25.557Z,15.40
2022-10-11T15:41:28.632Z,6.00
2022-10-11T15:46:31.575Z,6.30
2022-10-11T15:51:34.511Z,6.50
2022-10-11T15:56:37.415Z,7.20
2022-10-11T16:01:40.815Z,11.30
2022-10-11T16:06:43.837Z,42.20
2022-10-11T16:11:46.797Z,61.00
2022-10-11T16:16:49.862Z,82.00
2022-10-11T16:21:52.793Z,85.80
2022-10-11T16:26:55.747Z,111.20
2022-10-11T16:31:58.633Z,107.10
2022-10-11T16:37:02.072Z,97.50
2022-10-11T16:42:07.545Z,71.90
2022-10-11T16:47:10.641Z,115.10
2022-10-11T16:52:14.374Z,96.70
2022-10-11T16:57:20.007Z,109.60
2022-10-11T17:02:32.126Z,162.50
2022-10-11T17:07:35.711Z,155.20
2022-10-11T17:12:38.969Z,156.30
2022-10-11T17:17:41.915Z,146.60
2022-10-11T17:22:44.982Z,134.80
2022-10-11T17:27:48.069Z,128.40
2022-10-11T17:32:52.359Z,146.40
2022-10-11T17:37:55.267Z,132.40
2022-10-11T17:42:58.333Z,144.10
2022-10-11T17:48:04.200Z,140.50
2022-10-11T17:53:07.130Z,166.50
2022-10-11T17:58:11.314Z,138.60
2022-10-11T18:03:14.250Z,136.30
2022-10-11T18:08:20.450Z,110.70
2022-10-11T18:13:23.460Z,115.10
2022-10-11T18:18:27.468Z,98.60
2022-10-11T18:23:31.186Z,71.70
2022-10-11T18:33:38.080Z,69.80
2022-10-11T18:38:46.557Z,56.90
2022-10-11T18:43:53.980Z,41.50
2022-10-11T18:48:58.763Z,42.70
2022-10-11T18:54:02.865Z,44.80
2022-10-11T18:59:07.927Z,53.50
2022-10-11T19:04:15.898Z,60.40
2022-10-11T19:09:26.187Z,105.20
2022-10-11T19:14:30.385Z,73.50
2022-10-11T19:19:34.119Z,60.30
2022-10-11T19:24:37.107Z,115.40
2022-10-11T19:29:40.051Z,103.90
2022-10-11T19:34:42.971Z,119.70
2022-10-11T19:39:45.906Z,185.50
2022-10-11T19:44:48.810Z,150.90
2022-10-11T19:49:51.759Z,143.40
2022-10-11T19:54:54.674Z,74.90
2022-10-11T19:59:57.778Z,65.30
2022-10-11T20:05:00.698Z,54.00
2022-10-11T20:10:04.573Z,52.20
2022-10-11T20:15:07.979Z,39.80
2022-10-11T20:20:11.073Z,32.70
2022-10-11T20:25:14.030Z,35.80
2022-10-11T20:30:17.095Z,32.90
2022-10-11T20:35:20.013Z,31.40
2022-10-11T20:40:22.915Z,28.70
2022-10-11T20:45:25.825Z,28.50
2022-10-11T20:50:28.752Z,29.00
2022-10-11T20:55:32.012Z,27.90
2022-10-11T21:00:34.914Z,33.50
2022-10-11T21:05:37.838Z,34.40
2022-10-11T21:10:41.094Z,35.70
2022-10-11T21:15:44.031Z,39.20
2022-10-11T21:20:47.400Z,34.10
2022-10-11T21:25:50.297Z,38.80
2022-10-11T21:30:53.254Z,35.50
2022-10-11T21:35:56.193Z,44.00
2022-10-11T21:40:59.485Z,28.60
2022-10-11T21:46:22.567Z,28.50
2022-10-11T21:51:32.959Z,28.30
2022-10-11T21:56:36.204Z,27.20
2022-10-11T22:01:39.622Z,26.20
2022-10-11T22:06:42.595Z,25.70
2022-10-11T22:11:45.647Z,25.40
2022-10-11T22:16:48.567Z,21.10
2022-10-11T22:21:51.538Z,18.30
2022-10-11T22:26:54.459Z,19.30
2022-10-11T22:31:57.402Z,18.20
2022-10-11T22:37:00.313Z,18.00
2022-10-11T22:42:03.648Z,16.80
2022-10-11T22:47:06.574Z,16.30
2022-10-11T22:52:09.496Z,15.60
2022-10-11T22:57:12.426Z,16.90
2022-10-11T23:02:15.333Z,17.20
2022-10-11T23:07:18.247Z,18.80
2022-10-11T23:12:21.265Z,16.50
2022-10-11T23:17:24.315Z,15.40
2022-10-11T23:22:27.224Z,14.70
2022-10-11T23:27:30.909Z,13.60
2022-10-11T23:32:35.649Z,13.30
2022-10-11T23:37:39.003Z,13.30
2022-10-11T23:47:45.207Z,13.80
2022-10-11T23:52:48.092Z,12.90
2022-10-11T23:57:51.050Z,13.60
